sensor_id;sensor_type;location;lat;lon;timestamp;pressure;altitude;pressure_sealevel;temperature
45034;BMP280;30771;47.988;-4.186;2022-08-19T06:02:01;100746.97;;;18.91
45034;BMP280;30771;47.988;-4.186;2022-08-19T06:04:27;100739.50;;;18.93
45034;BMP280;30771;47.988;-4.186;2022-08-19T06:06:52;100744.84;;;18.93
45034;BMP280;30771;47.988;-4.186;2022-08-19T06:09:18;100746.47;;;18.94
45034;BMP280;30771;47.988;-4.186;2022-08-19T06:11:48;100748.09;;;18.95
45034;BMP280;30771;47.988;-4.186;2022-08-19T06:14:14;100739.84;;;18.96
45034;BMP280;30771;47.988;-4.186;2022-08-19T06:16:40;100739.56;;;18.98
45034;BMP280;30771;47.988;-4.186;2022-08-19T06:19:09;100736.66;;;18.99
45034;BMP280;30771;47.988;-4.186;2022-08-19T06:21:35;100738.00;;;19.02
45034;BMP280;30771;47.988;-4.186;2022-08-19T06:24:01;100732.97;;;19.05
45034;BMP280;30771;47.988;-4.186;2022-08-19T06:26:26;100736.22;;;19.12
45034;BMP280;30771;47.988;-4.186;2022-08-19T06:28:52;100739.47;;;19.14
45034;BMP280;30771;47.988;-4.186;2022-08-19T06:31:22;100744.78;;;19.14
45034;BMP280;30771;47.988;-4.186;2022-08-19T06:33:47;100742.91;;;19.15
45034;BMP280;30771;47.988;-4.186;2022-08-19T06:36:24;100745.91;;;19.18
45034;BMP280;30771;47.988;-4.186;2022-08-19T06:38:50;100744.03;;;19.19
45034;BMP280;30771;47.988;-4.186;2022-08-19T06:41:15;100739.25;;;19.21
45034;BMP280;30771;47.988;-4.186;2022-08-19T06:43:40;100737.16;;;19.23
45034;BMP280;30771;47.988;-4.186;2022-08-19T06:46:09;100739.53;;;19.24
45034;BMP280;30771;47.988;-4.186;2022-08-19T06:48:34;100753.69;;;19.25
45034;BMP280;30771;47.988;-4.186;2022-08-19T06:50:59;100749.97;;;19.26
45034;BMP280;30771;47.988;-4.186;2022-08-19T06:53:25;100751.03;;;19.25
45034;BMP280;30771;47.988;-4.186;2022-08-19T06:55:50;100741.47;;;19.29
45034;BMP280;30771;47.988;-4.186;2022-08-19T06:58:15;100738.84;;;19.34
45034;BMP280;30771;47.988;-4.186;2022-08-19T07:00:40;100734.59;;;19.38
45034;BMP280;30771;47.988;-4.186;2022-08-19T07:03:05;100743.97;;;19.40
45034;BMP280;30771;47.988;-4.186;2022-08-19T07:05:31;100740.78;;;19.43
45034;BMP280;30771;47.988;-4.186;2022-08-19T07:07:56;100739.47;;;19.46
45034;BMP280;30771;47.988;-4.186;2022-08-19T07:10:21;100748.84;;;19.48
45034;BMP280;30771;47.988;-4.186;2022-08-19T07:12:46;100753.09;;;19.49
45034;BMP280;30771;47.988;-4.186;2022-08-19T07:15:11;100750.75;;;19.53
45034;BMP280;30771;47.988;-4.186;2022-08-19T07:17:37;100746.97;;;19.54
45034;BMP280;30771;47.988;-4.186;2022-08-19T07:20:02;100750.47;;;19.54
45034;BMP280;30771;47.988;-4.186;2022-08-19T07:22:28;100754.25;;;19.53
45034;BMP280;30771;47.988;-4.186;2022-08-19T07:24:53;100747.25;;;19.52
45034;BMP280;30771;47.988;-4.186;2022-08-19T07:27:18;100750.22;;;19.56
45034;BMP280;30771;47.988;-4.186;2022-08-19T07:29:43;100750.50;;;19.59
45034;BMP280;30771;47.988;-4.186;2022-08-19T07:32:09;100745.69;;;19.56
45034;BMP280;30771;47.988;-4.186;2022-08-19T07:34:34;100757.53;;;19.65
45034;BMP280;30771;47.988;-4.186;2022-08-19T07:36:59;100759.69;;;19.73
45034;BMP280;30771;47.988;-4.186;2022-08-19T07:39:28;100764.59;;;19.86
45034;BMP280;30771;47.988;-4.186;2022-08-19T07:41:54;100766.88;;;20.05
45034;BMP280;30771;47.988;-4.186;2022-08-19T07:44:19;100779.50;;;20.19
45034;BMP280;30771;47.988;-4.186;2022-08-19T07:46:46;100785.41;;;20.21
45034;BMP280;30771;47.988;-4.186;2022-08-19T07:49:11;100794.72;;;20.19
45034;BMP280;30771;47.988;-4.186;2022-08-19T07:51:37;100785.06;;;20.13
45034;BMP280;30771;47.988;-4.186;2022-08-19T07:54:02;100796.28;;;20.10
45034;BMP280;30771;47.988;-4.186;2022-08-19T07:56:27;100793.06;;;20.08
45034;BMP280;30771;47.988;-4.186;2022-08-19T07:58:52;100791.69;;;20.05
45034;BMP280;30771;47.988;-4.186;2022-08-19T08:01:19;100789.81;;;20.06
45034;BMP280;30771;47.988;-4.186;2022-08-19T08:03:45;100793.88;;;20.08
45034;BMP280;30771;47.988;-4.186;2022-08-19T08:06:10;100798.41;;;20.08
45034;BMP280;30771;47.988;-4.186;2022-08-19T08:08:36;100801.63;;;20.10
45034;BMP280;30771;47.988;-4.186;2022-08-19T08:11:01;100807.53;;;20.12
45034;BMP280;30771;47.988;-4.186;2022-08-19T08:13:27;100799.22;;;20.08
45034;BMP280;30771;47.988;-4.186;2022-08-19T08:15:52;100800.81;;;20.04
45034;BMP280;30771;47.988;-4.186;2022-08-19T08:18:18;100807.72;;;20.05
45034;BMP280;30771;47.988;-4.186;2022-08-19T08:20:43;100810.69;;;20.04
45034;BMP280;30771;47.988;-4.186;2022-08-19T08:23:08;100805.03;;;20.00
45034;BMP280;30771;47.988;-4.186;2022-08-19T08:25:34;100802.38;;;20.00
45034;BMP280;30771;47.988;-4.186;2022-08-19T08:27:59;100799.19;;;20.03
45034;BMP280;30771;47.988;-4.186;2022-08-19T08:30:24;100800.81;;;20.09
45034;BMP280;30771;47.988;-4.186;2022-08-19T08:32:50;100800.81;;;20.09
45034;BMP280;30771;47.988;-4.186;2022-08-19T08:35:17;100798.69;;;20.11
45034;BMP280;30771;47.988;-4.186;2022-08-19T08:37:44;100794.19;;;20.17
45034;BMP280;30771;47.988;-4.186;2022-08-19T08:40:22;100795.56;;;20.24
45034;BMP280;30771;47.988;-4.186;2022-08-19T08:43:01;100806.31;;;20.34
45034;BMP280;30771;47.988;-4.186;2022-08-19T08:45:28;100802.31;;;20.37
45034;BMP280;30771;47.988;-4.186;2022-08-19T08:47:53;100804.97;;;20.32
45034;BMP280;30771;47.988;-4.186;2022-08-19T08:52:47;100810.22;;;20.12
45034;BMP280;30771;47.988;-4.186;2022-08-19T08:55:15;100800.25;;;20.02
45034;BMP280;30771;47.988;-4.186;2022-08-19T09:00:17;100797.63;;;20.07
45034;BMP280;30771;47.988;-4.186;2022-08-19T09:02:43;100801.91;;;20.08
45034;BMP280;30771;47.988;-4.186;2022-08-19T09:05:08;100815.25;;;20.08
45034;BMP280;30771;47.988;-4.186;2022-08-19T09:15:34;100806.13;;;19.99
45034;BMP280;30771;47.988;-4.186;2022-08-19T09:18:02;100808.50;;;20.01
45034;BMP280;30771;47.988;-4.186;2022-08-19T09:20:27;100817.91;;;20.03
45034;BMP280;30771;47.988;-4.186;2022-08-19T09:22:52;100808.53;;;20.06
45034;BMP280;30771;47.988;-4.186;2022-08-19T09:25:19;100813.06;;;20.05
45034;BMP280;30771;47.988;-4.186;2022-08-19T09:27:44;100818.19;;;20.07
45034;BMP280;30771;47.988;-4.186;2022-08-19T09:30:11;100821.69;;;20.07
45034;BMP280;30771;47.988;-4.186;2022-08-19T09:32:37;100812.03;;;20.06
45034;BMP280;30771;47.988;-4.186;2022-08-19T09:35:02;100818.41;;;20.00
45034;BMP280;30771;47.988;-4.186;2022-08-19T09:37:27;100809.06;;;19.98
45034;BMP280;30771;47.988;-4.186;2022-08-19T09:39:52;100808.22;;;19.97
45034;BMP280;30771;47.988;-4.186;2022-08-19T09:42:18;100809.84;;;19.98
45034;BMP280;30771;47.988;-4.186;2022-08-19T09:44:43;100809.06;;;19.98
45034;BMP280;30771;47.988;-4.186;2022-08-19T09:47:09;100814.41;;;19.98
45034;BMP280;30771;47.988;-4.186;2022-08-19T09:49:35;100810.09;;;19.97
45034;BMP280;30771;47.988;-4.186;2022-08-19T09:52:00;100802.34;;;19.95
45034;BMP280;30771;47.988;-4.186;2022-08-19T09:54:26;100805.03;;;19.95
45034;BMP280;30771;47.988;-4.186;2022-08-19T09:56:54;100806.38;;;19.98
45034;BMP280;30771;47.988;-4.186;2022-08-19T09:59:20;100803.69;;;19.98
45034;BMP280;30771;47.988;-4.186;2022-08-19T10:01:45;100801.59;;;20.00
45034;BMP280;30771;47.988;-4.186;2022-08-19T10:04:10;100805.81;;;20.01
45034;BMP280;30771;47.988;-4.186;2022-08-19T10:06:36;100801.59;;;20.00
45034;BMP280;30771;47.988;-4.186;2022-08-19T10:09:02;100808.28;;;20.02
45034;BMP280;30771;47.988;-4.186;2022-08-19T10:11:27;100807.19;;;20.03
45034;BMP280;30771;47.988;-4.186;2022-08-19T10:13:52;100812.28;;;20.00
45034;BMP280;30771;47.988;-4.186;2022-08-19T10:16:18;100823.16;;;19.93
45034;BMP280;30771;47.988;-4.186;2022-08-19T10:18:44;100823.41;;;19.86
45034;BMP280;30771;47.988;-4.186;2022-08-19T10:21:11;100830.56;;;19.81
45034;BMP280;30771;47.988;-4.186;2022-08-19T10:23:37;100828.44;;;19.78
45034;BMP280;30771;47.988;-4.186;2022-08-19T10:26:03;100823.03;;;19.73
45034;BMP280;30771;47.988;-4.186;2022-08-19T10:28:29;100823.03;;;19.73
45034;BMP280;30771;47.988;-4.186;2022-08-19T10:30:54;100823.84;;;19.73
45034;BMP280;30771;47.988;-4.186;2022-08-19T10:33:19;100824.66;;;19.74
45034;BMP280;30771;47.988;-4.186;2022-08-19T10:35:44;100832.66;;;19.74
45034;BMP280;30771;47.988;-4.186;2022-08-19T10:38:09;100828.38;;;19.73
45034;BMP280;30771;47.988;-4.186;2022-08-19T10:40:35;100832.66;;;19.74
45034;BMP280;30771;47.988;-4.186;2022-08-19T10:43:00;100833.50;;;19.79
45034;BMP280;30771;47.988;-4.186;2022-08-19T10:45:25;100836.22;;;19.84
45034;BMP280;30771;47.988;-4.186;2022-08-19T10:47:50;100845.50;;;19.77
45034;BMP280;30771;47.988;-4.186;2022-08-19T10:50:15;100842.25;;;19.70
45034;BMP280;30771;47.988;-4.186;2022-08-19T10:52:42;100846.22;;;19.67
45034;BMP280;30771;47.988;-4.186;2022-08-19T10:55:07;100847.28;;;19.66
45034;BMP280;30771;47.988;-4.186;2022-08-19T10:57:33;100846.22;;;19.67
45034;BMP280;30771;47.988;-4.186;2022-08-19T10:59:58;100862.22;;;19.62
45034;BMP280;30771;47.988;-4.186;2022-08-19T11:02:23;100862.44;;;19.56
45034;BMP280;30771;47.988;-4.186;2022-08-19T11:04:48;100870.59;;;19.44
45034;BMP280;30771;47.988;-4.186;2022-08-19T11:07:13;100868.00;;;19.23
45034;BMP280;30771;47.988;-4.186;2022-08-19T11:09:40;100870.03;;;19.16
45034;BMP280;30771;47.988;-4.186;2022-08-19T11:12:05;100858.53;;;19.15
45034;BMP280;30771;47.988;-4.186;2022-08-19T11:14:31;100858.09;;;19.23
45034;BMP280;30771;47.988;-4.186;2022-08-19T11:16:56;100863.28;;;19.35
45034;BMP280;30771;47.988;-4.186;2022-08-19T11:19:22;100859.88;;;19.39
45034;BMP280;30771;47.988;-4.186;2022-08-19T11:21:47;100867.44;;;19.47
45034;BMP280;30771;47.988;-4.186;2022-08-19T11:24:17;100878.97;;;19.53
45034;BMP280;30771;47.988;-4.186;2022-08-19T11:26:43;100890.66;;;19.47
45034;BMP280;30771;47.988;-4.186;2022-08-19T11:29:09;100885.56;;;19.45
45034;BMP280;30771;47.988;-4.186;2022-08-19T11:31:35;100891.72;;;19.46
45034;BMP280;30771;47.988;-4.186;2022-08-19T11:34:01;100896.56;;;19.49
45034;BMP280;30771;47.988;-4.186;2022-08-19T11:36:27;100887.16;;;19.46
45034;BMP280;30771;47.988;-4.186;2022-08-19T11:38:52;100884.31;;;19.53
45034;BMP280;30771;47.988;-4.186;2022-08-19T11:41:18;100880.66;;;19.64
45034;BMP280;30771;47.988;-4.186;2022-08-19T11:43:43;100880.06;;;19.88
45034;BMP280;30771;47.988;-4.186;2022-08-19T11:46:09;100874.09;;;20.13
45034;BMP280;30771;47.988;-4.186;2022-08-19T11:48:35;100881.69;;;20.26
45034;BMP280;30771;47.988;-4.186;2022-08-19T11:51:02;100893.81;;;20.39
45034;BMP280;30771;47.988;-4.186;2022-08-19T11:53:29;100903.16;;;20.36
45034;BMP280;30771;47.988;-4.186;2022-08-19T11:55:54;100908.91;;;20.18
45034;BMP280;30771;47.988;-4.186;2022-08-19T11:58:19;100912.28;;;20.04
45034;BMP280;30771;47.988;-4.186;2022-08-19T12:00:45;100911.47;;;20.03
45034;BMP280;30771;47.988;-4.186;2022-08-19T12:03:10;100918.94;;;20.01
45034;BMP280;30771;47.988;-4.186;2022-08-19T12:05:36;100917.69;;;20.14
45034;BMP280;30771;47.988;-4.186;2022-08-19T12:08:01;100909.84;;;20.39
45034;BMP280;30771;47.988;-4.186;2022-08-19T12:10:26;100919.88;;;20.53
45034;BMP280;30771;47.988;-4.186;2022-08-19T12:12:52;100920.16;;;20.62
45034;BMP280;30771;47.988;-4.186;2022-08-19T12:15:17;100917.84;;;20.80
45034;BMP280;30771;47.988;-4.186;2022-08-19T12:17:42;100911.81;;;21.10
45034;BMP280;30771;47.988;-4.186;2022-08-19T12:20:08;100910.00;;;21.35
45034;BMP280;30771;47.988;-4.186;2022-08-19T12:22:33;100900.38;;;21.49
45034;BMP280;30771;47.988;-4.186;2022-08-19T12:24:59;100903.03;;;21.59
45034;BMP280;30771;47.988;-4.186;2022-08-19T12:27:24;100895.84;;;21.70
45034;BMP280;30771;47.988;-4.186;2022-08-19T12:29:49;100888.31;;;21.97
45034;BMP280;30771;47.988;-4.186;2022-08-19T12:32:14;100893.88;;;22.31
45034;BMP280;30771;47.988;-4.186;2022-08-19T12:34:39;100896.31;;;22.27
45034;BMP280;30771;47.988;-4.186;2022-08-19T12:37:05;100897.16;;;22.13
45034;BMP280;30771;47.988;-4.186;2022-08-19T12:39:33;100895.00;;;22.05
45034;BMP280;30771;47.988;-4.186;2022-08-19T12:41:59;100895.00;;;22.00
45034;BMP280;30771;47.988;-4.186;2022-08-19T12:44:24;100900.06;;;22.06
45034;BMP280;30771;47.988;-4.186;2022-08-19T12:46:49;100897.94;;;22.08
45034;BMP280;30771;47.988;-4.186;2022-08-19T12:49:14;100900.09;;;22.16
45034;BMP280;30771;47.988;-4.186;2022-08-19T12:51:40;100897.38;;;22.31
45034;BMP280;30771;47.988;-4.186;2022-08-19T12:54:06;100902.97;;;22.40
45034;BMP280;30771;47.988;-4.186;2022-08-19T12:56:31;100902.44;;;22.38
45034;BMP280;30771;47.988;-4.186;2022-08-19T12:58:56;100898.66;;;22.44
45034;BMP280;30771;47.988;-4.186;2022-08-19T13:01:21;100898.66;;;22.54
45034;BMP280;30771;47.988;-4.186;2022-08-19T13:03:46;100895.16;;;22.58
45034;BMP280;30771;47.988;-4.186;2022-08-19T13:06:12;100888.66;;;22.64
45034;BMP280;30771;47.988;-4.186;2022-08-19T13:08:37;100878.81;;;22.98
45034;BMP280;30771;47.988;-4.186;2022-08-19T13:11:13;100879.41;;;23.29
45034;BMP280;30771;47.988;-4.186;2022-08-19T13:13:39;100883.09;;;23.43
45034;BMP280;30771;47.988;-4.186;2022-08-19T13:16:05;100885.63;;;23.58
45034;BMP280;30771;47.988;-4.186;2022-08-19T13:18:30;100879.31;;;23.72
45034;BMP280;30771;47.988;-4.186;2022-08-19T13:20:55;100880.66;;;23.75
45034;BMP280;30771;47.988;-4.186;2022-08-19T13:23:20;100893.22;;;23.51
45034;BMP280;30771;47.988;-4.186;2022-08-19T13:25:54;100889.41;;;23.18
45034;BMP280;30771;47.988;-4.186;2022-08-19T13:28:19;100887.63;;;23.09
45034;BMP280;30771;47.988;-4.186;2022-08-19T13:30:46;100871.97;;;23.21
45034;BMP280;30771;47.988;-4.186;2022-08-19T13:33:12;100881.09;;;23.25
45034;BMP280;30771;47.988;-4.186;2022-08-19T13:35:41;100882.25;;;23.09
45034;BMP280;30771;47.988;-4.186;2022-08-19T13:38:07;100884.41;;;23.07
45034;BMP280;30771;47.988;-4.186;2022-08-19T13:40:32;100883.56;;;23.11
45034;BMP280;30771;47.988;-4.186;2022-08-19T13:42:57;100870.91;;;23.17
45034;BMP280;30771;47.988;-4.186;2022-08-19T13:45:23;100883.53;;;23.16
45034;BMP280;30771;47.988;-4.186;2022-08-19T13:47:49;100888.88;;;23.21
45034;BMP280;30771;47.988;-4.186;2022-08-19T13:50:16;100890.47;;;23.27
45034;BMP280;30771;47.988;-4.186;2022-08-19T13:52:41;100895.00;;;23.32
45034;BMP280;30771;47.988;-4.186;2022-08-19T13:55:07;100896.63;;;23.28
45034;BMP280;30771;47.988;-4.186;2022-08-19T13:57:32;100886.94;;;23.32
45034;BMP280;30771;47.988;-4.186;2022-08-19T13:59:58;100883.13;;;23.38
45034;BMP280;30771;47.988;-4.186;2022-08-19T14:02:23;100878.22;;;23.45
45034;BMP280;30771;47.988;-4.186;2022-08-19T14:04:48;100881.53;;;23.65
45034;BMP280;30771;47.988;-4.186;2022-08-19T14:07:14;100883.63;;;23.73
45034;BMP280;30771;47.988;-4.186;2022-08-19T14:09:39;100886.16;;;23.60
45034;BMP280;30771;47.988;-4.186;2022-08-19T14:12:04;100884.09;;;23.52
45034;BMP280;30771;47.988;-4.186;2022-08-19T14:14:29;100891.19;;;23.38
45034;BMP280;30771;47.988;-4.186;2022-08-19T14:16:54;100900.47;;;23.17
45034;BMP280;30771;47.988;-4.186;2022-08-19T14:19:20;100888.44;;;23.09
45034;BMP280;30771;47.988;-4.186;2022-08-19T14:21:45;100895.75;;;22.99
45034;BMP280;30771;47.988;-4.186;2022-08-19T14:24:10;100889.84;;;22.97
45034;BMP280;30771;47.988;-4.186;2022-08-19T14:26:35;100888.78;;;22.98
45034;BMP280;30771;47.988;-4.186;2022-08-19T14:29:00;100897.09;;;22.96
45034;BMP280;30771;47.988;-4.186;2022-08-19T14:31:25;100885.78;;;22.99
45034;BMP280;30771;47.988;-4.186;2022-08-19T14:33:50;100894.25;;;23.21
45034;BMP280;30771;47.988;-4.186;2022-08-19T14:36:16;100893.88;;;23.38
45034;BMP280;30771;47.988;-4.186;2022-08-19T14:38:42;100890.03;;;23.49
45034;BMP280;30771;47.988;-4.186;2022-08-19T14:41:09;100892.84;;;23.62
45034;BMP280;30771;47.988;-4.186;2022-08-19T14:43:34;100895.53;;;23.62
45034;BMP280;30771;47.988;-4.186;2022-08-19T14:45:59;100883.19;;;23.61
45034;BMP280;30771;47.988;-4.186;2022-08-19T14:48:25;100888.72;;;23.75
45034;BMP280;30771;47.988;-4.186;2022-08-19T14:50:50;100912.63;;;23.76
45034;BMP280;30771;47.988;-4.186;2022-08-19T14:53:15;100895.72;;;23.76
45034;BMP280;30771;47.988;-4.186;2022-08-19T14:55:41;100898.84;;;23.88
45034;BMP280;30771;47.988;-4.186;2022-08-19T14:58:07;100908.28;;;23.86
45034;BMP280;30771;47.988;-4.186;2022-08-19T15:00:32;100903.28;;;23.74
45034;BMP280;30771;47.988;-4.186;2022-08-19T15:02:57;100889.22;;;23.77
45034;BMP280;30771;47.988;-4.186;2022-08-19T15:05:22;100891.06;;;23.81
45034;BMP280;30771;47.988;-4.186;2022-08-19T15:07:47;100899.44;;;23.80
45034;BMP280;30771;47.988;-4.186;2022-08-19T15:10:13;100901.28;;;23.84
45034;BMP280;30771;47.988;-4.186;2022-08-19T15:12:39;100912.47;;;23.68
45034;BMP280;30771;47.988;-4.186;2022-08-19T15:15:04;100913.09;;;23.55
45034;BMP280;30771;47.988;-4.186;2022-08-19T15:17:30;100894.25;;;23.55
45034;BMP280;30771;47.988;-4.186;2022-08-19T15:19:55;100891.22;;;23.66
45034;BMP280;30771;47.988;-4.186;2022-08-19T15:22:20;100895.22;;;23.74
45034;BMP280;30771;47.988;-4.186;2022-08-19T15:24:45;100892.50;;;23.74
45034;BMP280;30771;47.988;-4.186;2022-08-19T15:27:10;100900.69;;;23.59
45034;BMP280;30771;47.988;-4.186;2022-08-19T15:29:36;100897.00;;;23.50
45034;BMP280;30771;47.988;-4.186;2022-08-19T15:32:01;100891.88;;;23.53
45034;BMP280;30771;47.988;-4.186;2022-08-19T15:34:26;100897.00;;;23.50
45034;BMP280;30771;47.988;-4.186;2022-08-19T15:36:51;100892.00;;;23.38
45034;BMP280;30771;47.988;-4.186;2022-08-19T15:39:17;100892.00;;;23.33
45034;BMP280;30771;47.988;-4.186;2022-08-19T15:41:42;100889.97;;;23.20
45034;BMP280;30771;47.988;-4.186;2022-08-19T15:44:08;100894.78;;;23.18
45034;BMP280;30771;47.988;-4.186;2022-08-19T15:46:35;100881.34;;;23.23
45034;BMP280;30771;47.988;-4.186;2022-08-19T15:49:00;100881.00;;;23.35
45034;BMP280;30771;47.988;-4.186;2022-08-19T15:51:27;100887.66;;;23.42
45034;BMP280;30771;47.988;-4.186;2022-08-19T15:53:53;100903.81;;;23.37
45034;BMP280;30771;47.988;-4.186;2022-08-19T15:56:18;100893.94;;;23.28
45034;BMP280;30771;47.988;-4.186;2022-08-19T15:58:43;100893.47;;;23.16
45034;BMP280;30771;47.988;-4.186;2022-08-19T16:01:09;100903.75;;;23.09
45034;BMP280;30771;47.988;-4.186;2022-08-19T16:03:34;100892.50;;;23.02
45034;BMP280;30771;47.988;-4.186;2022-08-19T16:05:59;100890.31;;;23.04
45034;BMP280;30771;47.988;-4.186;2022-08-19T16:08:24;100886.03;;;23.08
45034;BMP280;30771;47.988;-4.186;2022-08-19T16:10:49;100874.19;;;23.09
45034;BMP280;30771;47.988;-4.186;2022-08-19T16:13:15;100883.56;;;23.11
45034;BMP280;30771;47.988;-4.186;2022-08-19T16:15:40;100884.41;;;23.07
45034;BMP280;30771;47.988;-4.186;2022-08-19T16:18:05;100888.72;;;23.08
45034;BMP280;30771;47.988;-4.186;2022-08-19T16:20:30;100889.25;;;23.05
45034;BMP280;30771;47.988;-4.186;2022-08-19T16:22:56;100898.38;;;23.04
45034;BMP280;30771;47.988;-4.186;2022-08-19T16:25:21;100892.72;;;23.10
45034;BMP280;30771;47.988;-4.186;2022-08-19T16:27:46;100893.25;;;23.12
45034;BMP280;30771;47.988;-4.186;2022-08-19T16:30:12;100892.16;;;23.13
45034;BMP280;30771;47.988;-4.186;2022-08-19T16:32:41;100897.03;;;23.06
45034;BMP280;30771;47.988;-4.186;2022-08-19T16:35:06;100899.75;;;23.01
45034;BMP280;30771;47.988;-4.186;2022-08-19T16:37:31;100894.66;;;23.00
45034;BMP280;30771;47.988;-4.186;2022-08-19T16:40:00;100904.66;;;22.89
45034;BMP280;30771;47.988;-4.186;2022-08-19T16:42:26;100901.72;;;22.86
45034;BMP280;30771;47.988;-4.186;2022-08-19T16:44:51;100900.63;;;22.92
45034;BMP280;30771;47.988;-4.186;2022-08-19T16:47:16;100915.88;;;22.96
45034;BMP280;30771;47.988;-4.186;2022-08-19T16:49:41;100914.34;;;22.90
45034;BMP280;30771;47.988;-4.186;2022-08-19T16:52:06;100906.84;;;22.82
45034;BMP280;30771;47.988;-4.186;2022-08-19T16:57:09;100899.03;;;22.91
45034;BMP280;30771;47.988;-4.186;2022-08-19T16:59:35;100896.03;;;22.97
45034;BMP280;30771;47.988;-4.186;2022-08-19T17:02:00;100891.72;;;22.96
45034;BMP280;30771;47.988;-4.186;2022-08-19T17:04:26;100893.06;;;22.99
45034;BMP280;30771;47.988;-4.186;2022-08-19T17:06:52;100893.06;;;22.94
45034;BMP280;30771;47.988;-4.186;2022-08-19T17:09:17;100888.84;;;22.88
45034;BMP280;30771;47.988;-4.186;2022-08-19T17:11:42;100880.78;;;22.88
45034;BMP280;30771;47.988;-4.186;2022-08-19T17:14:07;100889.34;;;22.90
45034;BMP280;30771;47.988;-4.186;2022-08-19T17:16:33;100875.34;;;22.93
45034;BMP280;30771;47.988;-4.186;2022-08-19T17:19:00;100880.47;;;22.89
45034;BMP280;30771;47.988;-4.186;2022-08-19T17:21:27;100879.63;;;22.99
45034;BMP280;30771;47.988;-4.186;2022-08-19T17:23:52;100882.91;;;22.91
45034;BMP280;30771;47.988;-4.186;2022-08-19T17:26:18;100880.25;;;22.86
45034;BMP280;30771;47.988;-4.186;2022-08-19T17:28:43;100877.00;;;22.84
45034;BMP280;30771;47.988;-4.186;2022-08-19T17:31:08;100884.06;;;22.70
45034;BMP280;30771;47.988;-4.186;2022-08-19T17:33:33;100885.19;;;22.59
45034;BMP280;30771;47.988;-4.186;2022-08-19T17:35:59;100890.84;;;22.52
45034;BMP280;30771;47.988;-4.186;2022-08-19T17:38:24;100904.25;;;22.52
45034;BMP280;30771;47.988;-4.186;2022-08-19T17:40:49;100893.84;;;22.41
45034;BMP280;30771;47.988;-4.186;2022-08-19T17:43:15;100905.66;;;22.40
45034;BMP280;30771;47.988;-4.186;2022-08-19T17:45:41;100895.38;;;22.57
45034;BMP280;30771;47.988;-4.186;2022-08-19T17:48:07;100895.03;;;22.83
45034;BMP280;30771;47.988;-4.186;2022-08-19T17:50:32;100887.94;;;23.02
45034;BMP280;30771;47.988;-4.186;2022-08-19T17:52:58;100889.88;;;23.30
45034;BMP280;30771;47.988;-4.186;2022-08-19T17:55:23;100887.16;;;24.21
45034;BMP280;30771;47.988;-4.186;2022-08-19T17:57:49;100896.66;;;25.16
45034;BMP280;30771;47.988;-4.186;2022-08-19T18:00:14;100899.66;;;25.79
45034;BMP280;30771;47.988;-4.186;2022-08-19T18:02:58;100897.53;;;26.43
45034;BMP280;30771;47.988;-4.186;2022-08-19T18:05:24;100900.78;;;27.03
45034;BMP280;30771;47.988;-4.186;2022-08-19T18:07:51;100889.97;;;27.56
45034;BMP280;30771;47.988;-4.186;2022-08-19T18:10:17;100896.53;;;28.02
45034;BMP280;30771;47.988;-4.186;2022-08-19T18:12:42;100896.91;;;28.26
45034;BMP280;30771;47.988;-4.186;2022-08-19T18:15:08;100900.91;;;28.46
45034;BMP280;30771;47.988;-4.186;2022-08-19T18:17:33;100903.47;;;28.85
45034;BMP280;30771;47.988;-4.186;2022-08-19T18:19:58;100897.72;;;28.95
45034;BMP280;30771;47.988;-4.186;2022-08-19T18:22:25;100912.25;;;28.90
45034;BMP280;30771;47.988;-4.186;2022-08-19T18:24:50;100919.75;;;28.76
45034;BMP280;30771;47.988;-4.186;2022-08-19T18:27:16;100912.09;;;28.70
45034;BMP280;30771;47.988;-4.186;2022-08-19T18:29:41;100913.81;;;28.49
45034;BMP280;30771;47.988;-4.186;2022-08-19T18:32:06;100925.38;;;28.15
45034;BMP280;30771;47.988;-4.186;2022-08-19T18:34:31;100922.91;;;27.97
45034;BMP280;30771;47.988;-4.186;2022-08-19T18:36:59;100932.66;;;27.37
45034;BMP280;30771;47.988;-4.186;2022-08-19T18:39:24;100953.78;;;26.28
45034;BMP280;30771;47.988;-4.186;2022-08-19T18:41:49;100947.88;;;24.98
45034;BMP280;30771;47.988;-4.186;2022-08-19T18:44:15;100962.13;;;23.75
45034;BMP280;30771;47.988;-4.186;2022-08-19T18:46:40;100958.16;;;22.81
45034;BMP280;30771;47.988;-4.186;2022-08-19T18:49:07;100962.59;;;22.17
45034;BMP280;30771;47.988;-4.186;2022-08-19T18:51:32;100964.19;;;21.67
45034;BMP280;30771;47.988;-4.186;2022-08-19T18:53:58;100957.16;;;21.26
45034;BMP280;30771;47.988;-4.186;2022-08-19T18:56:23;100948.44;;;20.94
45034;BMP280;30771;47.988;-4.186;2022-08-19T18:58:48;100942.09;;;20.64
45034;BMP280;30771;47.988;-4.186;2022-08-19T19:01:16;100944.38;;;20.40
45034;BMP280;30771;47.988;-4.186;2022-08-19T19:03:49;100941.81;;;20.19
45034;BMP280;30771;47.988;-4.186;2022-08-19T19:06:19;100945.34;;;19.92
45034;BMP280;30771;47.988;-4.186;2022-08-19T19:08:45;100947.84;;;19.72
45034;BMP280;30771;47.988;-4.186;2022-08-19T19:11:11;100947.34;;;19.54
45034;BMP280;30771;47.988;-4.186;2022-08-19T19:13:36;100953.53;;;19.33
45034;BMP280;30771;47.988;-4.186;2022-08-19T19:16:01;100952.81;;;19.16
45034;BMP280;30771;47.988;-4.186;2022-08-19T19:18:27;100950.19;;;18.99
45034;BMP280;30771;47.988;-4.186;2022-08-19T19:20:52;100949.44;;;18.82
45034;BMP280;30771;47.988;-4.186;2022-08-19T19:23:18;100946.91;;;18.76
45034;BMP280;30771;47.988;-4.186;2022-08-19T19:25:43;100945.19;;;18.65
45034;BMP280;30771;47.988;-4.186;2022-08-19T19:28:08;100945.84;;;18.55
45034;BMP280;30771;47.988;-4.186;2022-08-19T19:30:33;100953.91;;;18.44
45034;BMP280;30771;47.988;-4.186;2022-08-19T19:32:58;100955.34;;;18.34
45034;BMP280;30771;47.988;-4.186;2022-08-19T19:35:23;100954.16;;;18.25
45034;BMP280;30771;47.988;-4.186;2022-08-19T19:37:49;100958.50;;;18.15
45034;BMP280;30771;47.988;-4.186;2022-08-19T19:40:14;100957.84;;;18.08
45034;BMP280;30771;47.988;-4.186;2022-08-19T19:42:39;100958.50;;;17.98
45034;BMP280;30771;47.988;-4.186;2022-08-19T19:45:04;100958.63;;;17.92
45034;BMP280;30771;47.988;-4.186;2022-08-19T19:47:29;100966.19;;;17.83
45034;BMP280;30771;47.988;-4.186;2022-08-19T19:49:55;100963.13;;;17.75
45034;BMP280;30771;47.988;-4.186;2022-08-19T19:52:20;100962.41;;;17.68